createdAt,value
2023-06-03T00:00:39.027Z,12.20
2023-06-03T00:03:06.703Z,12.30
2023-06-03T00:05:34.625Z,12.30
2023-06-03T00:08:02.268Z,12.20
2023-06-03T00:10:29.798Z,12.30
2023-06-03T00:12:57.655Z,12.30
2023-06-03T00:15:25.248Z,12.30
2023-06-03T00:17:53.136Z,12.20
2023-06-03T00:20:21.343Z,12.20
2023-06-03T00:22:49.238Z,12.10
2023-06-03T00:25:16.786Z,12.10
2023-06-03T00:27:44.966Z,12.30
2023-06-03T00:30:13.284Z,12.30
2023-06-03T00:32:40.935Z,12.20
2023-06-03T00:35:33.669Z,12.20
2023-06-03T00:38:01.821Z,12.20
2023-06-03T00:40:30.607Z,12.30
2023-06-03T00:43:00.665Z,12.20
2023-06-03T00:45:28.391Z,12.10
2023-06-03T00:47:56.579Z,12.10
2023-06-03T00:50:25.439Z,12.00
2023-06-03T00:52:53.609Z,12.10
2023-06-03T00:55:21.184Z,12.10
2023-06-03T00:57:49.781Z,12.10
2023-06-03T01:00:17.508Z,12.10
2023-06-03T01:02:45.871Z,12.10
2023-06-03T01:05:15.719Z,12.00
2023-06-03T01:08:02.694Z,12.10
2023-06-03T01:10:35.962Z,12.10
2023-06-03T01:13:06.933Z,12.10
2023-06-03T01:15:36.808Z,12.00
2023-06-03T01:18:06.395Z,12.00
2023-06-03T01:20:35.182Z,12.10
2023-06-03T01:23:13.084Z,12.10
2023-06-03T01:25:43.648Z,12.00
2023-06-03T01:28:11.347Z,11.90
2023-06-03T01:30:39.251Z,11.90
2023-06-03T01:33:07.325Z,12.00
2023-06-03T01:35:35.946Z,12.00
2023-06-03T01:38:04.058Z,11.90
2023-06-03T01:40:32.228Z,11.80
2023-06-03T01:42:59.797Z,11.70
2023-06-03T01:45:27.996Z,11.70
2023-06-03T01:47:55.811Z,11.70
2023-06-03T01:50:24.384Z,11.70
2023-06-03T01:52:52.202Z,11.80
2023-06-03T01:55:19.972Z,11.90
2023-06-03T01:57:50.495Z,12.00
2023-06-03T02:00:18.472Z,12.00
2023-06-03T02:02:46.188Z,11.90
2023-06-03T02:05:13.866Z,12.00
2023-06-03T02:07:41.628Z,12.10
2023-06-03T02:10:09.402Z,12.00
2023-06-03T02:12:36.930Z,12.00
2023-06-03T02:15:04.930Z,11.90
2023-06-03T02:17:32.791Z,11.90
2023-06-03T02:20:01.078Z,12.00
2023-06-03T02:22:28.848Z,12.00
2023-06-03T02:24:58.848Z,12.00
2023-06-03T02:27:26.934Z,11.90
2023-06-03T02:29:54.808Z,11.70
2023-06-03T02:32:22.706Z,11.60
2023-06-03T02:34:51.622Z,11.60
2023-06-03T02:37:19.300Z,11.80
2023-06-03T02:39:47.500Z,11.80
2023-06-03T02:42:14.971Z,11.80
2023-06-03T02:44:42.594Z,11.60
2023-06-03T02:47:10.494Z,11.60
2023-06-03T02:49:38.219Z,11.60
2023-06-03T02:52:06.302Z,11.50
2023-06-03T02:54:33.880Z,11.60
2023-06-03T02:57:01.472Z,11.50
2023-06-03T02:59:29.124Z,11.50
2023-06-03T03:01:56.766Z,11.60
2023-06-03T03:04:24.609Z,11.60
2023-06-03T03:06:52.167Z,11.50
2023-06-03T03:09:19.625Z,11.50
2023-06-03T03:11:47.179Z,11.50
2023-06-03T03:14:15.628Z,11.60
2023-06-03T03:16:44.070Z,11.60
2023-06-03T03:19:11.599Z,11.60
2023-06-03T03:21:39.174Z,11.50
2023-06-03T03:24:07.163Z,11.50
2023-06-03T03:26:34.945Z,11.40
2023-06-03T03:29:02.746Z,11.50
2023-06-03T03:31:31.136Z,11.60
2023-06-03T03:33:59.319Z,11.60
2023-06-03T03:36:30.287Z,11.60
2023-06-03T03:39:06.367Z,11.50
2023-06-03T03:41:34.380Z,11.50
2023-06-03T03:44:02.372Z,11.40
2023-06-03T03:46:29.927Z,11.30
2023-06-03T03:48:58.703Z,11.20
2023-06-03T03:51:26.532Z,11.30
2023-06-03T03:53:54.487Z,11.20
2023-06-03T03:56:24.309Z,11.20
2023-06-03T03:58:54.436Z,11.20
2023-06-03T04:01:25.348Z,11.30
2023-06-03T04:03:56.498Z,11.30
2023-06-03T04:06:38.036Z,11.30
2023-06-03T04:09:06.879Z,11.20
2023-06-03T04:11:39.941Z,11.30
2023-06-03T04:14:11.845Z,11.50
2023-06-03T04:16:51.277Z,11.70
2023-06-03T04:19:37.991Z,11.70
2023-06-03T04:22:10.869Z,11.80
2023-06-03T04:24:42.451Z,11.70
2023-06-03T04:27:10.145Z,11.80
2023-06-03T04:29:37.708Z,12.00
2023-06-03T04:32:05.584Z,12.00
2023-06-03T04:34:33.219Z,12.00
2023-06-03T04:37:00.821Z,12.10
2023-06-03T04:39:28.893Z,12.30
2023-06-03T04:41:56.392Z,12.20
2023-06-03T04:44:23.918Z,12.30
2023-06-03T04:46:52.349Z,12.80
2023-06-03T04:49:19.871Z,13.90
2023-06-03T04:51:47.348Z,15.10
2023-06-03T04:54:16.337Z,15.90
2023-06-03T04:56:43.886Z,17.30
2023-06-03T04:59:12.009Z,17.60
2023-06-03T05:01:40.629Z,17.80
2023-06-03T05:04:09.991Z,19.00
2023-06-03T05:06:38.107Z,19.90
2023-06-03T05:09:06.687Z,20.60
2023-06-03T05:11:34.247Z,20.30
2023-06-03T05:14:01.776Z,19.80
2023-06-03T05:16:29.492Z,20.80
2023-06-03T05:18:57.089Z,20.50
2023-06-03T05:21:24.580Z,21.20
2023-06-03T05:23:52.240Z,22.10
2023-06-03T05:26:19.811Z,23.90
2023-06-03T05:28:49.656Z,24.00
2023-06-03T05:31:17.490Z,24.30
2023-06-03T05:33:45.226Z,25.20
2023-06-03T05:36:12.848Z,25.70
2023-06-03T05:38:40.482Z,23.10
2023-06-03T05:41:08.545Z,22.50
2023-06-03T05:43:36.240Z,23.80
2023-06-03T05:46:04.058Z,23.00
2023-06-03T05:48:32.839Z,23.30
2023-06-03T05:51:01.791Z,24.80
2023-06-03T05:53:29.409Z,24.90
2023-06-03T05:55:57.163Z,23.50
2023-06-03T05:58:24.739Z,24.00
2023-06-03T06:00:53.492Z,25.40
2023-06-03T06:03:21.563Z,26.50
2023-06-03T06:05:49.239Z,25.40
2023-06-03T06:08:16.921Z,26.80
2023-06-03T06:10:44.516Z,26.40
2023-06-03T06:13:12.162Z,28.40
2023-06-03T06:15:39.815Z,27.10
2023-06-03T06:18:07.534Z,25.10
2023-06-03T06:20:35.090Z,26.10
2023-06-03T06:23:02.749Z,26.60
2023-06-03T06:25:30.318Z,27.10
2023-06-03T06:27:58.006Z,27.80
2023-06-03T06:30:25.778Z,28.80
2023-06-03T06:32:53.800Z,29.70
2023-06-03T06:35:21.919Z,28.80
2023-06-03T06:37:50.804Z,29.00
2023-06-03T06:40:22.443Z,25.60
2023-06-03T06:42:50.328Z,27.80
2023-06-03T06:45:24.839Z,28.40
2023-06-03T06:48:14.124Z,27.40
2023-06-03T06:51:00.655Z,27.70
2023-06-03T06:53:30.111Z,27.30
2023-06-03T06:56:02.930Z,27.30
2023-06-03T06:58:41.321Z,27.90
2023-06-03T07:01:11.162Z,28.30
2023-06-03T07:03:39.063Z,28.30
2023-06-03T07:06:07.202Z,28.70
2023-06-03T07:08:34.930Z,28.40
2023-06-03T07:11:05.809Z,28.60
2023-06-03T07:13:33.880Z,28.80
2023-06-03T07:16:04.151Z,27.70
2023-06-03T07:18:33.685Z,27.50
2023-06-03T07:21:01.392Z,27.30
2023-06-03T07:23:29.984Z,28.00
2023-06-03T07:25:57.902Z,28.90
2023-06-03T07:28:32.240Z,29.10
2023-06-03T07:31:02.140Z,27.40
2023-06-03T07:33:52.017Z,26.60
2023-06-03T07:36:22.218Z,26.50
2023-06-03T07:39:12.347Z,26.80
2023-06-03T07:41:52.123Z,25.90
2023-06-03T07:44:56.728Z,27.00
2023-06-03T07:47:27.436Z,28.60
2023-06-03T07:49:57.304Z,27.50
2023-06-03T07:52:25.396Z,28.80
2023-06-03T07:54:53.045Z,28.20
2023-06-03T07:57:20.619Z,28.50
2023-06-03T07:59:57.401Z,28.70
2023-06-03T08:02:25.471Z,28.20
2023-06-03T08:04:57.601Z,29.00
2023-06-03T08:07:26.531Z,29.20
2023-06-03T08:09:54.313Z,29.90
2023-06-03T08:12:31.196Z,31.30
2023-06-03T08:14:58.916Z,32.10
2023-06-03T08:17:39.297Z,31.70
2023-06-03T08:20:11.659Z,30.50
2023-06-03T08:22:44.795Z,29.50
2023-06-03T08:25:14.504Z,29.20
2023-06-03T08:27:42.462Z,28.60
2023-06-03T08:30:11.389Z,28.40
2023-06-03T08:32:39.958Z,28.80
2023-06-03T08:35:12.756Z,29.50
2023-06-03T08:37:41.206Z,30.50
2023-06-03T08:40:11.332Z,32.10
2023-06-03T08:42:49.145Z,29.70
2023-06-03T08:45:18.322Z,27.70
2023-06-03T08:48:14.962Z,24.20
2023-06-03T08:50:49.622Z,24.90
2023-06-03T08:53:18.234Z,27.20
2023-06-03T08:55:51.464Z,26.60
2023-06-03T08:58:34.407Z,27.00
2023-06-03T09:01:04.631Z,26.70
2023-06-03T09:03:33.669Z,26.60
2023-06-03T09:06:01.902Z,26.80
2023-06-03T09:08:31.119Z,24.90
2023-06-03T09:11:00.788Z,25.50
2023-06-03T09:13:30.297Z,26.90
2023-06-03T09:15:58.435Z,28.00
2023-06-03T09:18:26.525Z,27.20
2023-06-03T09:20:54.111Z,25.50
2023-06-03T09:23:22.678Z,26.50
2023-06-03T09:25:50.701Z,28.10
2023-06-03T09:28:18.982Z,28.50
2023-06-03T09:30:46.686Z,28.00
2023-06-03T09:33:14.307Z,27.30
2023-06-03T09:35:42.392Z,27.10
2023-06-03T09:38:09.970Z,27.20
2023-06-03T09:40:37.556Z,27.20
2023-06-03T09:43:12.757Z,26.70
2023-06-03T09:45:40.608Z,27.20
2023-06-03T09:48:09.972Z,27.40
2023-06-03T09:50:51.004Z,27.40
2023-06-03T09:53:22.525Z,26.90
2023-06-03T09:55:50.111Z,27.10
2023-06-03T09:58:23.460Z,27.20
2023-06-03T10:00:52.868Z,27.40
2023-06-03T10:03:26.781Z,27.20
2023-06-03T10:05:54.896Z,28.20
2023-06-03T10:08:31.982Z,27.30
2023-06-03T10:11:01.718Z,27.10
2023-06-03T10:13:29.391Z,27.60
2023-06-03T10:15:59.732Z,28.50
2023-06-03T10:18:56.794Z,27.30
2023-06-03T10:21:26.242Z,25.40
2023-06-03T10:23:56.996Z,27.20
2023-06-03T10:26:25.370Z,27.40
2023-06-03T10:28:53.759Z,27.50
2023-06-03T10:31:23.402Z,27.80
2023-06-03T10:33:52.351Z,28.00
2023-06-03T10:36:22.265Z,26.90
2023-06-03T10:38:51.790Z,25.90
2023-06-03T10:41:22.298Z,27.30
2023-06-03T10:43:51.558Z,28.00
2023-06-03T10:46:20.268Z,28.40
2023-06-03T10:48:49.270Z,28.30
2023-06-03T10:51:21.839Z,29.90
2023-06-03T10:54:17.036Z,29.50
2023-06-03T10:56:58.122Z,28.80
2023-06-03T10:59:29.857Z,27.20
2023-06-03T11:02:03.426Z,27.60
2023-06-03T11:04:33.593Z,25.90
2023-06-03T11:07:01.746Z,26.80
2023-06-03T11:09:32.227Z,27.80
2023-06-03T11:12:05.414Z,29.50
2023-06-03T11:14:41.245Z,30.00
2023-06-03T11:17:11.264Z,29.40
2023-06-03T11:19:39.082Z,29.10
2023-06-03T11:22:11.097Z,28.90
2023-06-03T11:24:43.000Z,29.20
2023-06-03T11:27:14.320Z,27.30
2023-06-03T11:29:47.785Z,25.40
2023-06-03T11:32:23.768Z,26.90
2023-06-03T11:35:06.268Z,27.70
2023-06-03T11:37:43.835Z,26.60
2023-06-03T11:40:19.970Z,27.00
2023-06-03T11:42:55.037Z,26.80
2023-06-03T11:45:30.480Z,27.10
2023-06-03T11:47:59.224Z,25.80
2023-06-03T11:50:28.850Z,25.20
2023-06-03T11:52:56.876Z,24.00
2023-06-03T11:55:29.698Z,24.00
2023-06-03T11:58:13.897Z,23.80
2023-06-03T12:00:41.653Z,23.60
2023-06-03T12:03:16.450Z,23.70
2023-06-03T12:05:57.615Z,23.80
2023-06-03T12:08:25.570Z,23.60
2023-06-03T12:10:54.293Z,23.60
2023-06-03T12:13:21.970Z,23.60
2023-06-03T12:15:50.031Z,23.70
2023-06-03T12:18:17.687Z,23.90
2023-06-03T12:20:49.243Z,23.90
2023-06-03T12:23:24.764Z,24.10
2023-06-03T12:25:57.021Z,23.80
2023-06-03T12:28:26.388Z,23.10
2023-06-03T12:30:54.039Z,22.30
2023-06-03T12:33:24.480Z,22.80
2023-06-03T12:35:56.953Z,23.30
2023-06-03T12:38:27.589Z,23.50
2023-06-03T12:41:09.872Z,23.60
2023-06-03T12:43:37.810Z,23.50
2023-06-03T12:46:19.682Z,23.40
2023-06-03T12:48:47.262Z,23.50
2023-06-03T12:51:24.681Z,23.50
2023-06-03T12:53:56.877Z,23.70
2023-06-03T12:56:26.721Z,23.70
2023-06-03T12:58:55.549Z,23.70
2023-06-03T13:01:24.216Z,23.20
2023-06-03T13:03:57.773Z,23.10
2023-06-03T13:06:27.069Z,23.40
2023-06-03T13:08:54.844Z,23.40
2023-06-03T13:11:23.024Z,23.40
2023-06-03T13:13:50.712Z,23.40
2023-06-03T13:16:18.308Z,23.40
2023-06-03T13:18:45.853Z,23.50
2023-06-03T13:21:13.561Z,23.50
2023-06-03T13:23:41.827Z,23.30
2023-06-03T13:26:09.433Z,23.40
2023-06-03T13:28:38.625Z,23.10
2023-06-03T13:31:06.768Z,23.10
2023-06-03T13:33:34.722Z,23.20
2023-06-03T13:36:02.562Z,23.40
2023-06-03T13:38:30.079Z,23.70
2023-06-03T13:40:57.658Z,23.40
2023-06-03T13:43:25.881Z,23.60
2023-06-03T13:45:54.100Z,23.40
2023-06-03T13:48:22.322Z,23.40
2023-06-03T13:50:50.729Z,23.50
2023-06-03T13:53:18.474Z,23.60
2023-06-03T13:55:46.165Z,23.60
2023-06-03T13:58:14.044Z,23.00
2023-06-03T14:00:41.708Z,22.90
2023-06-03T14:03:09.369Z,23.20
2023-06-03T14:05:38.052Z,23.30
2023-06-03T14:08:06.203Z,23.40
2023-06-03T14:10:33.845Z,23.60
2023-06-03T14:13:01.960Z,23.50
2023-06-03T14:15:29.778Z,23.40
2023-06-03T14:17:57.425Z,23.40
2023-06-03T14:20:25.532Z,23.40
2023-06-03T14:22:53.185Z,23.60
2023-06-03T14:25:21.313Z,23.60
2023-06-03T14:27:49.089Z,23.40
2023-06-03T14:30:18.287Z,23.50
2023-06-03T14:32:46.058Z,23.40
2023-06-03T14:35:13.885Z,23.50
2023-06-03T14:37:41.644Z,23.20
2023-06-03T14:40:09.608Z,23.20
2023-06-03T14:42:37.446Z,23.40
2023-06-03T14:45:05.423Z,23.40
2023-06-03T14:47:33.108Z,23.70
2023-06-03T14:50:02.480Z,23.80
2023-06-03T14:52:30.155Z,23.80
2023-06-03T14:54:57.855Z,23.80
2023-06-03T14:57:25.942Z,23.80
2023-06-03T14:59:53.577Z,23.70
2023-06-03T15:02:21.360Z,23.70
2023-06-03T15:04:49.192Z,23.60
2023-06-03T15:07:16.783Z,23.90
2023-06-03T15:09:44.361Z,23.50
2023-06-03T15:12:13.326Z,23.50
2023-06-03T15:14:41.519Z,23.50
2023-06-03T15:17:09.762Z,23.40
2023-06-03T15:19:37.806Z,23.60
2023-06-03T15:22:06.069Z,23.60
2023-06-03T15:24:34.085Z,23.70
2023-06-03T15:27:02.137Z,23.60
2023-06-03T15:29:29.703Z,23.70
2023-06-03T15:31:57.471Z,23.90
2023-06-03T15:34:25.392Z,23.80
2023-06-03T15:36:52.985Z,23.60
2023-06-03T15:39:21.134Z,23.60
2023-06-03T15:41:48.821Z,23.30
2023-06-03T15:44:17.114Z,23.30
2023-06-03T15:46:44.875Z,23.40
2023-06-03T15:49:12.797Z,23.40
2023-06-03T15:51:40.502Z,23.40
2023-06-03T15:54:08.554Z,23.20
2023-06-03T15:56:36.196Z,23.20
2023-06-03T15:59:03.751Z,23.40
2023-06-03T16:01:31.684Z,23.50
2023-06-03T16:03:59.404Z,23.40
2023-06-03T16:06:26.974Z,23.10
2023-06-03T16:08:54.491Z,23.20
2023-06-03T16:11:22.109Z,23.30
2023-06-03T16:13:49.642Z,23.30
2023-06-03T16:16:17.473Z,23.30
2023-06-03T16:18:45.308Z,23.10
2023-06-03T16:21:13.276Z,23.20
2023-06-03T16:23:42.105Z,23.20
2023-06-03T16:26:09.679Z,23.30
2023-06-03T16:28:37.173Z,23.40
2023-06-03T16:31:04.633Z,23.40
2023-06-03T16:33:37.417Z,23.40
2023-06-03T16:36:05.618Z,23.30
2023-06-03T16:38:35.213Z,23.40
2023-06-03T16:41:02.846Z,23.40
2023-06-03T16:43:30.682Z,23.50
2023-06-03T16:45:58.222Z,23.40
2023-06-03T16:48:25.979Z,23.20
2023-06-03T16:50:53.767Z,23.10
2023-06-03T16:53:21.550Z,23.10
2023-06-03T16:55:49.415Z,23.10
2023-06-03T16:58:17.010Z,23.00
2023-06-03T17:00:44.945Z,22.90
2023-06-03T17:03:12.652Z,22.90
2023-06-03T17:05:41.177Z,22.70
2023-06-03T17:08:08.687Z,22.80
2023-06-03T17:10:36.748Z,22.80
2023-06-03T17:13:04.274Z,22.80
2023-06-03T17:15:31.909Z,22.90
2023-06-03T17:17:59.512Z,22.80
2023-06-03T17:20:27.147Z,22.80
2023-06-03T17:22:54.732Z,22.90
2023-06-03T17:25:22.623Z,22.80
2023-06-03T17:27:50.262Z,22.80
2023-06-03T17:30:17.821Z,22.70
2023-06-03T17:32:46.205Z,22.60
2023-06-03T17:35:14.510Z,22.60
2023-06-03T17:37:42.574Z,22.50
2023-06-03T17:40:10.896Z,22.50
2023-06-03T17:42:38.506Z,22.50
2023-06-03T17:45:07.085Z,22.50
2023-06-03T17:47:34.957Z,22.40
2023-06-03T17:50:02.503Z,22.40
2023-06-03T17:52:30.070Z,22.40
2023-06-03T17:54:57.647Z,22.30
2023-06-03T17:57:25.172Z,22.40
2023-06-03T17:59:52.663Z,22.30
2023-06-03T18:02:21.965Z,22.20
2023-06-03T18:04:49.548Z,22.10
2023-06-03T18:07:17.175Z,22.00
2023-06-03T18:09:45.804Z,22.10
2023-06-03T18:12:13.460Z,22.00
2023-06-03T18:14:41.299Z,22.00
2023-06-03T18:17:09.700Z,22.00
2023-06-03T18:19:37.493Z,21.90
2023-06-03T18:22:05.214Z,21.80
2023-06-03T18:24:32.862Z,21.80
2023-06-03T18:27:01.057Z,21.70
2023-06-03T18:29:28.668Z,21.70
2023-06-03T18:31:56.316Z,21.60
2023-06-03T18:34:24.432Z,21.40
2023-06-03T18:36:51.994Z,21.40
2023-06-03T18:39:19.635Z,21.20
2023-06-03T18:41:47.312Z,21.30
2023-06-03T18:44:15.458Z,21.30
2023-06-03T18:46:43.514Z,21.20
2023-06-03T18:49:11.215Z,21.20
2023-06-03T18:51:39.144Z,21.10
2023-06-03T18:54:06.942Z,21.00
2023-06-03T18:56:34.486Z,20.90
2023-06-03T18:59:13.684Z,20.80
2023-06-03T19:01:46.540Z,20.80
2023-06-03T19:04:14.868Z,20.80
2023-06-03T19:06:42.552Z,20.80
2023-06-03T19:09:12.579Z,20.60
2023-06-03T19:11:46.545Z,20.40
2023-06-03T19:14:14.611Z,20.40
2023-06-03T19:16:44.643Z,20.40
2023-06-03T19:19:13.309Z,20.30
2023-06-03T19:21:41.229Z,20.30
2023-06-03T19:24:09.165Z,20.30
2023-06-03T19:26:36.899Z,20.20
2023-06-03T19:29:04.519Z,20.00
2023-06-03T19:31:32.971Z,19.80
2023-06-03T19:34:01.117Z,19.60
2023-06-03T19:36:29.970Z,19.60
2023-06-03T19:38:58.689Z,19.60
2023-06-03T19:41:29.403Z,19.60
2023-06-03T19:43:57.496Z,19.40
2023-06-03T19:46:27.833Z,19.40
2023-06-03T19:48:55.993Z,19.30
2023-06-03T19:51:23.706Z,19.10
2023-06-03T19:53:52.791Z,19.00
2023-06-03T19:56:20.331Z,18.80
2023-06-03T19:58:48.001Z,18.80
2023-06-03T20:01:15.795Z,18.70
2023-06-03T20:03:43.513Z,18.70
2023-06-03T20:06:11.172Z,18.70
2023-06-03T20:08:38.734Z,18.60
2023-06-03T20:11:07.276Z,18.60
2023-06-03T20:13:35.539Z,18.60
2023-06-03T20:16:05.203Z,18.40
2023-06-03T20:18:34.507Z,18.20
2023-06-03T20:21:02.368Z,18.10
2023-06-03T20:23:29.935Z,18.10
2023-06-03T20:25:57.801Z,18.10
2023-06-03T20:28:27.357Z,18.10
2023-06-03T20:30:55.037Z,18.00
2023-06-03T20:33:22.830Z,18.00
2023-06-03T20:35:50.549Z,17.90
2023-06-03T20:38:18.193Z,17.80
2023-06-03T20:40:46.094Z,17.60
2023-06-03T20:43:14.817Z,17.60
2023-06-03T20:45:42.550Z,17.60
2023-06-03T20:48:10.437Z,17.40
2023-06-03T20:50:38.212Z,17.40
2023-06-03T20:53:06.102Z,17.40
2023-06-03T20:55:33.835Z,17.50
2023-06-03T20:58:04.652Z,17.40
2023-06-03T21:00:32.304Z,17.20
2023-06-03T21:03:00.257Z,17.20
2023-06-03T21:05:27.952Z,17.10
2023-06-03T21:07:55.895Z,17.00
2023-06-03T21:10:23.749Z,17.10
2023-06-03T21:12:51.453Z,17.10
2023-06-03T21:15:18.982Z,17.00
2023-06-03T21:17:46.707Z,16.90
2023-06-03T21:20:15.062Z,16.80
2023-06-03T21:22:42.810Z,16.80
2023-06-03T21:25:11.052Z,16.70
2023-06-03T21:27:38.794Z,16.80
2023-06-03T21:30:07.226Z,16.80
2023-06-03T21:32:35.169Z,16.70
2023-06-03T21:35:04.606Z,16.60
2023-06-03T21:37:32.366Z,16.60
2023-06-03T21:39:59.867Z,16.60
2023-06-03T21:42:27.488Z,16.50
2023-06-03T21:44:56.468Z,16.40
2023-06-03T21:47:24.471Z,16.40
2023-06-03T21:49:52.350Z,16.30
2023-06-03T21:52:19.926Z,16.10
2023-06-03T21:54:47.601Z,16.10
2023-06-03T21:57:15.521Z,15.90
2023-06-03T21:59:43.059Z,15.90
2023-06-03T22:02:10.879Z,15.80
2023-06-03T22:04:40.338Z,15.90
2023-06-03T22:07:09.366Z,15.80
2023-06-03T22:09:37.163Z,15.70
2023-06-03T22:12:05.926Z,15.60
2023-06-03T22:14:34.784Z,15.50
2023-06-03T22:17:02.385Z,15.40
2023-06-03T22:19:30.677Z,15.30
2023-06-03T22:21:58.367Z,15.30
2023-06-03T22:24:25.898Z,15.20
2023-06-03T22:26:53.600Z,15.10
2023-06-03T22:29:21.221Z,15.10
2023-06-03T22:31:48.861Z,14.90
2023-06-03T22:34:17.250Z,14.80
2023-06-03T22:36:44.998Z,14.70
2023-06-03T22:39:12.572Z,14.60
2023-06-03T22:41:40.150Z,14.50
2023-06-03T22:44:07.714Z,14.30
2023-06-03T22:46:36.484Z,14.20
2023-06-03T22:49:04.413Z,14.20
2023-06-03T22:51:31.956Z,14.30
2023-06-03T22:53:59.581Z,14.30
2023-06-03T22:56:27.399Z,14.30
2023-06-03T22:58:55.016Z,14.20
2023-06-03T23:01:22.611Z,14.20
2023-06-03T23:03:50.439Z,14.20
2023-06-03T23:06:19.114Z,14.10
2023-06-03T23:08:46.813Z,14.10
2023-06-03T23:11:14.562Z,14.10
2023-06-03T23:13:43.375Z,14.00
2023-06-03T23:16:11.190Z,13.90
2023-06-03T23:18:39.139Z,13.80
2023-06-03T23:21:07.119Z,13.80
2023-06-03T23:23:35.023Z,13.70
2023-06-03T23:26:02.810Z,13.60
2023-06-03T23:28:30.499Z,13.60
2023-06-03T23:30:58.010Z,13.60
2023-06-03T23:33:25.859Z,13.60
2023-06-03T23:35:53.422Z,13.50
2023-06-03T23:38:21.034Z,13.40
2023-06-03T23:40:48.666Z,13.30
2023-06-03T23:43:16.527Z,13.30
2023-06-03T23:45:44.194Z,13.30
2023-06-03T23:48:11.969Z,13.10
2023-06-03T23:50:39.547Z,13.00
2023-06-03T23:53:07.925Z,12.90
2023-06-03T23:55:35.833Z,12.80
2023-06-03T23:58:03.376Z,12.70
